sensor_id;sensor_type;location;lat;lon;timestamp;temperature;humidity
423;DHT22;198;48.752;9.180;2023-12-04T00:01:10;-3.50;99.90
423;DHT22;198;48.752;9.180;2023-12-04T00:03:35;-3.50;99.90
423;DHT22;198;48.752;9.180;2023-12-04T00:06:01;-3.50;99.90
423;DHT22;198;48.752;9.180;2023-12-04T00:08:27;-3.50;99.90
423;DHT22;198;48.752;9.180;2023-12-04T00:10:52;-3.50;99.90
423;DHT22;198;48.752;9.180;2023-12-04T00:13:19;-3.60;99.90
423;DHT22;198;48.752;9.180;2023-12-04T00:15:44;-3.60;99.90
423;DHT22;198;48.752;9.180;2023-12-04T00:18:10;-3.50;99.90
423;DHT22;198;48.752;9.180;2023-12-04T00:20:35;-3.50;99.90
423;DHT22;198;48.752;9.180;2023-12-04T00:23:02;-3.50;99.90
423;DHT22;198;48.752;9.180;2023-12-04T00:25:27;-3.60;99.90
423;DHT22;198;48.752;9.180;2023-12-04T00:27:53;-3.50;99.90
423;DHT22;198;48.752;9.180;2023-12-04T00:30:18;-3.60;99.90
423;DHT22;198;48.752;9.180;2023-12-04T00:32:44;-3.50;99.90
423;DHT22;198;48.752;9.180;2023-12-04T00:35:09;-3.50;99.90
423;DHT22;198;48.752;9.180;2023-12-04T00:37:35;-3.50;99.90
423;DHT22;198;48.752;9.180;2023-12-04T00:40:05;-3.50;99.90
423;DHT22;198;48.752;9.180;2023-12-04T00:42:30;-3.50;99.90
423;DHT22;198;48.752;9.180;2023-12-04T00:44:56;-3.50;99.90
423;DHT22;198;48.752;9.180;2023-12-04T00:47:21;-3.60;99.90
423;DHT22;198;48.752;9.180;2023-12-04T00:49:47;-3.50;99.90
423;DHT22;198;48.752;9.180;2023-12-04T00:52:12;-3.60;99.90
423;DHT22;198;48.752;9.180;2023-12-04T00:54:41;-3.60;99.90
423;DHT22;198;48.752;9.180;2023-12-04T00:57:07;-3.60;99.90
423;DHT22;198;48.752;9.180;2023-12-04T00:59:32;-3.70;99.90
423;DHT22;198;48.752;9.180;2023-12-04T01:01:58;-3.60;99.90
423;DHT22;198;48.752;9.180;2023-12-04T01:04:23;-3.60;99.90
423;DHT22;198;48.752;9.180;2023-12-04T01:06:49;-3.70;99.90
423;DHT22;198;48.752;9.180;2023-12-04T01:09:14;-3.60;99.90
423;DHT22;198;48.752;9.180;2023-12-04T01:11:40;-3.70;99.90
423;DHT22;198;48.752;9.180;2023-12-04T01:14:05;-3.70;99.90
423;DHT22;198;48.752;9.180;2023-12-04T01:16:31;-3.60;99.90
423;DHT22;198;48.752;9.180;2023-12-04T01:18:56;-3.60;99.90
423;DHT22;198;48.752;9.180;2023-12-04T01:21:22;-3.60;99.90
423;DHT22;198;48.752;9.180;2023-12-04T01:23:47;-3.60;99.90
423;DHT22;198;48.752;9.180;2023-12-04T01:26:13;-3.60;99.90
423;DHT22;198;48.752;9.180;2023-12-04T01:28:38;-3.60;99.90
423;DHT22;198;48.752;9.180;2023-12-04T01:31:04;-3.60;99.90
423;DHT22;198;48.752;9.180;2023-12-04T01:33:30;-3.60;99.90
423;DHT22;198;48.752;9.180;2023-12-04T01:35:55;-3.50;99.90
423;DHT22;198;48.752;9.180;2023-12-04T01:38:21;-3.50;99.90
423;DHT22;198;48.752;9.180;2023-12-04T01:40:46;-3.50;99.90
423;DHT22;198;48.752;9.180;2023-12-04T01:43:12;-3.50;99.90
423;DHT22;198;48.752;9.180;2023-12-04T01:45:38;-3.50;99.90
423;DHT22;198;48.752;9.180;2023-12-04T01:48:04;-3.50;99.90
423;DHT22;198;48.752;9.180;2023-12-04T01:50:31;-3.40;99.90
423;DHT22;198;48.752;9.180;2023-12-04T01:52:58;-3.40;99.90
423;DHT22;198;48.752;9.180;2023-12-04T01:55:23;-3.40;99.90
423;DHT22;198;48.752;9.180;2023-12-04T01:57:49;-3.40;99.90
423;DHT22;198;48.752;9.180;2023-12-04T02:00:15;-3.40;99.90
423;DHT22;198;48.752;9.180;2023-12-04T02:02:41;-3.40;99.90
423;DHT22;198;48.752;9.180;2023-12-04T02:05:09;-3.40;99.90
423;DHT22;198;48.752;9.180;2023-12-04T02:07:36;-3.40;99.90
423;DHT22;198;48.752;9.180;2023-12-04T02:10:05;-3.30;99.90
423;DHT22;198;48.752;9.180;2023-12-04T02:12:31;-3.30;99.90
423;DHT22;198;48.752;9.180;2023-12-04T02:14:57;-3.30;99.90
423;DHT22;198;48.752;9.180;2023-12-04T02:17:24;-3.40;99.90
423;DHT22;198;48.752;9.180;2023-12-04T02:19:51;-3.40;99.90
423;DHT22;198;48.752;9.180;2023-12-04T02:22:16;-3.40;99.90
423;DHT22;198;48.752;9.180;2023-12-04T02:24:45;-3.40;99.90
423;DHT22;198;48.752;9.180;2023-12-04T02:27:37;-3.50;99.90
423;DHT22;198;48.752;9.180;2023-12-04T02:30:06;-3.50;99.90
423;DHT22;198;48.752;9.180;2023-12-04T02:32:36;-3.50;99.90
423;DHT22;198;48.752;9.180;2023-12-04T02:35:04;-3.50;99.90
423;DHT22;198;48.752;9.180;2023-12-04T02:37:32;-3.50;99.90
423;DHT22;198;48.752;9.180;2023-12-04T02:39:58;-3.50;99.90
423;DHT22;198;48.752;9.180;2023-12-04T02:42:24;-3.50;99.90
423;DHT22;198;48.752;9.180;2023-12-04T02:44:52;-3.40;99.90
423;DHT22;198;48.752;9.180;2023-12-04T02:47:18;-3.40;99.90
423;DHT22;198;48.752;9.180;2023-12-04T02:49:43;-3.40;99.90
423;DHT22;198;48.752;9.180;2023-12-04T02:52:09;-3.40;99.90
423;DHT22;198;48.752;9.180;2023-12-04T02:54:41;-3.50;99.90
423;DHT22;198;48.752;9.180;2023-12-04T02:57:06;-3.50;99.90
423;DHT22;198;48.752;9.180;2023-12-04T02:59:32;-3.50;99.90
423;DHT22;198;48.752;9.180;2023-12-04T03:01:57;-3.50;99.90
423;DHT22;198;48.752;9.180;2023-12-04T03:04:23;-3.50;99.90
423;DHT22;198;48.752;9.180;2023-12-04T03:06:48;-3.50;99.90
423;DHT22;198;48.752;9.180;2023-12-04T03:09:14;-3.50;99.90
423;DHT22;198;48.752;9.180;2023-12-04T03:11:40;-3.50;99.90
423;DHT22;198;48.752;9.180;2023-12-04T03:14:06;-3.40;99.90
423;DHT22;198;48.752;9.180;2023-12-04T03:16:32;-3.40;99.90
423;DHT22;198;48.752;9.180;2023-12-04T03:18:57;-3.50;99.90
423;DHT22;198;48.752;9.180;2023-12-04T03:21:23;-3.50;99.90
423;DHT22;198;48.752;9.180;2023-12-04T03:23:48;-3.50;99.90
423;DHT22;198;48.752;9.180;2023-12-04T03:26:14;-3.40;99.90
423;DHT22;198;48.752;9.180;2023-12-04T03:28:39;-3.40;99.90
423;DHT22;198;48.752;9.180;2023-12-04T03:31:06;-3.40;99.90
423;DHT22;198;48.752;9.180;2023-12-04T03:33:31;-3.40;99.90
423;DHT22;198;48.752;9.180;2023-12-04T03:35:58;-3.40;99.90
423;DHT22;198;48.752;9.180;2023-12-04T03:38:24;-3.40;99.90
423;DHT22;198;48.752;9.180;2023-12-04T03:40:49;-3.40;99.90
423;DHT22;198;48.752;9.180;2023-12-04T03:43:15;-3.40;99.90
423;DHT22;198;48.752;9.180;2023-12-04T03:45:40;-3.40;99.90
423;DHT22;198;48.752;9.180;2023-12-04T03:48:06;-3.30;99.90
423;DHT22;198;48.752;9.180;2023-12-04T03:50:31;-3.30;99.90
423;DHT22;198;48.752;9.180;2023-12-04T03:52:57;-3.30;99.90
423;DHT22;198;48.752;9.180;2023-12-04T03:55:22;-3.20;99.90
423;DHT22;198;48.752;9.180;2023-12-04T03:57:48;-3.30;99.90
423;DHT22;198;48.752;9.180;2023-12-04T04:00:13;-3.30;99.90
423;DHT22;198;48.752;9.180;2023-12-04T04:02:42;-3.30;99.90
423;DHT22;198;48.752;9.180;2023-12-04T04:05:08;-3.30;99.90
423;DHT22;198;48.752;9.180;2023-12-04T04:07:33;-3.30;99.90
423;DHT22;198;48.752;9.180;2023-12-04T04:09:59;-3.30;99.90
423;DHT22;198;48.752;9.180;2023-12-04T04:12:24;-3.30;99.90
423;DHT22;198;48.752;9.180;2023-12-04T04:14:50;-3.30;99.90
423;DHT22;198;48.752;9.180;2023-12-04T04:17:15;-3.30;99.90
423;DHT22;198;48.752;9.180;2023-12-04T04:19:41;-3.20;99.90
423;DHT22;198;48.752;9.180;2023-12-04T04:22:06;-3.30;99.90
423;DHT22;198;48.752;9.180;2023-12-04T04:24:32;-3.20;99.90
423;DHT22;198;48.752;9.180;2023-12-04T04:26:57;-3.20;99.90
423;DHT22;198;48.752;9.180;2023-12-04T04:29:23;-3.20;99.90
423;DHT22;198;48.752;9.180;2023-12-04T04:31:48;-3.30;99.90
423;DHT22;198;48.752;9.180;2023-12-04T04:34:14;-3.30;99.90
423;DHT22;198;48.752;9.180;2023-12-04T04:36:39;-3.40;99.90
423;DHT22;198;48.752;9.180;2023-12-04T04:39:05;-3.30;99.90
423;DHT22;198;48.752;9.180;2023-12-04T04:41:30;-3.30;99.90
423;DHT22;198;48.752;9.180;2023-12-04T04:43:56;-3.30;99.90
423;DHT22;198;48.752;9.180;2023-12-04T04:46:21;-3.30;99.90
423;DHT22;198;48.752;9.180;2023-12-04T04:48:47;-3.30;99.90
423;DHT22;198;48.752;9.180;2023-12-04T04:51:13;-3.30;99.90
423;DHT22;198;48.752;9.180;2023-12-04T04:53:39;-3.30;99.90
423;DHT22;198;48.752;9.180;2023-12-04T04:56:05;-3.30;99.90
423;DHT22;198;48.752;9.180;2023-12-04T04:58:30;-3.30;99.90
423;DHT22;198;48.752;9.180;2023-12-04T05:00:56;-3.20;99.90
423;DHT22;198;48.752;9.180;2023-12-04T05:03:21;-3.20;99.90
423;DHT22;198;48.752;9.180;2023-12-04T05:05:47;-3.20;99.90
423;DHT22;198;48.752;9.180;2023-12-04T05:08:12;-3.20;99.90
423;DHT22;198;48.752;9.180;2023-12-04T05:10:41;-3.20;99.90
423;DHT22;198;48.752;9.180;2023-12-04T05:13:07;-3.20;99.90
423;DHT22;198;48.752;9.180;2023-12-04T05:15:33;-3.20;99.90
423;DHT22;198;48.752;9.180;2023-12-04T05:17:58;-3.20;99.90
423;DHT22;198;48.752;9.180;2023-12-04T05:20:24;-3.20;99.90
423;DHT22;198;48.752;9.180;2023-12-04T05:22:49;-3.10;99.90
423;DHT22;198;48.752;9.180;2023-12-04T05:25:15;-3.10;99.90
423;DHT22;198;48.752;9.180;2023-12-04T05:27:41;-3.10;99.90
423;DHT22;198;48.752;9.180;2023-12-04T05:30:06;-3.10;99.90
423;DHT22;198;48.752;9.180;2023-12-04T05:32:32;-3.10;99.90
423;DHT22;198;48.752;9.180;2023-12-04T05:34:58;-3.00;99.90
423;DHT22;198;48.752;9.180;2023-12-04T05:37:23;-3.00;99.90
423;DHT22;198;48.752;9.180;2023-12-04T05:39:49;-3.00;99.90
423;DHT22;198;48.752;9.180;2023-12-04T05:42:14;-3.00;99.90
423;DHT22;198;48.752;9.180;2023-12-04T05:44:40;-2.90;99.90
423;DHT22;198;48.752;9.180;2023-12-04T05:47:05;-2.90;99.90
423;DHT22;198;48.752;9.180;2023-12-04T05:49:33;-2.80;99.90
423;DHT22;198;48.752;9.180;2023-12-04T05:51:59;-2.80;99.90
423;DHT22;198;48.752;9.180;2023-12-04T05:54:24;-2.80;99.90
423;DHT22;198;48.752;9.180;2023-12-04T05:56:50;-2.80;99.90
423;DHT22;198;48.752;9.180;2023-12-04T05:59:15;-2.80;99.90
423;DHT22;198;48.752;9.180;2023-12-04T06:01:41;-2.90;99.90
423;DHT22;198;48.752;9.180;2023-12-04T06:04:06;-2.90;99.90
423;DHT22;198;48.752;9.180;2023-12-04T06:06:32;-2.80;99.90
423;DHT22;198;48.752;9.180;2023-12-04T06:08:57;-2.80;99.90
423;DHT22;198;48.752;9.180;2023-12-04T06:11:23;-2.80;99.90
423;DHT22;198;48.752;9.180;2023-12-04T06:13:48;-2.80;99.90
423;DHT22;198;48.752;9.180;2023-12-04T06:16:14;-2.80;99.90
423;DHT22;198;48.752;9.180;2023-12-04T06:18:39;-2.80;99.90
423;DHT22;198;48.752;9.180;2023-12-04T06:21:05;-2.90;99.90
423;DHT22;198;48.752;9.180;2023-12-04T06:23:31;-2.90;99.90
423;DHT22;198;48.752;9.180;2023-12-04T06:25:57;-2.90;99.90
423;DHT22;198;48.752;9.180;2023-12-04T06:28:23;-3.00;99.90
423;DHT22;198;48.752;9.180;2023-12-04T06:30:49;-3.00;99.90
423;DHT22;198;48.752;9.180;2023-12-04T06:33:15;-3.10;99.90
423;DHT22;198;48.752;9.180;2023-12-04T06:35:43;-3.10;99.90
423;DHT22;198;48.752;9.180;2023-12-04T06:38:10;-3.20;99.90
423;DHT22;198;48.752;9.180;2023-12-04T06:40:39;-3.20;99.90
423;DHT22;198;48.752;9.180;2023-12-04T06:43:05;-3.20;99.90
423;DHT22;198;48.752;9.180;2023-12-04T06:45:31;-3.20;99.90
423;DHT22;198;48.752;9.180;2023-12-04T06:47:59;-3.20;99.90
423;DHT22;198;48.752;9.180;2023-12-04T06:50:24;-3.10;99.90
423;DHT22;198;48.752;9.180;2023-12-04T06:52:50;-3.10;99.90
423;DHT22;198;48.752;9.180;2023-12-04T06:55:15;-3.00;99.90
423;DHT22;198;48.752;9.180;2023-12-04T06:57:41;-3.00;99.90
423;DHT22;198;48.752;9.180;2023-12-04T07:00:07;-3.00;99.90
423;DHT22;198;48.752;9.180;2023-12-04T07:02:33;-3.00;99.90
423;DHT22;198;48.752;9.180;2023-12-04T07:04:59;-2.90;99.90
423;DHT22;198;48.752;9.180;2023-12-04T07:07:24;-2.80;99.90
423;DHT22;198;48.752;9.180;2023-12-04T07:09:50;-2.70;99.90
423;DHT22;198;48.752;9.180;2023-12-04T07:12:16;-2.60;99.90
423;DHT22;198;48.752;9.180;2023-12-04T07:14:41;-2.50;99.90
423;DHT22;198;48.752;9.180;2023-12-04T07:17:07;-2.50;99.90
423;DHT22;198;48.752;9.180;2023-12-04T07:19:32;-2.50;99.90
423;DHT22;198;48.752;9.180;2023-12-04T07:21:58;-2.50;99.90
423;DHT22;198;48.752;9.180;2023-12-04T07:24:23;-2.60;99.90
423;DHT22;198;48.752;9.180;2023-12-04T07:26:49;-2.50;99.90
423;DHT22;198;48.752;9.180;2023-12-04T07:29:15;-2.50;99.90
423;DHT22;198;48.752;9.180;2023-12-04T07:31:41;-2.50;99.90
423;DHT22;198;48.752;9.180;2023-12-04T07:34:07;-2.50;99.90
423;DHT22;198;48.752;9.180;2023-12-04T07:36:32;-2.40;99.90
423;DHT22;198;48.752;9.180;2023-12-04T07:38:58;-2.30;99.90
423;DHT22;198;48.752;9.180;2023-12-04T07:41:23;-2.30;99.90
423;DHT22;198;48.752;9.180;2023-12-04T07:43:49;-2.30;99.90
423;DHT22;198;48.752;9.180;2023-12-04T07:46:15;-2.30;99.90
423;DHT22;198;48.752;9.180;2023-12-04T07:48:40;-2.20;99.90
423;DHT22;198;48.752;9.180;2023-12-04T07:51:06;-2.20;99.90
423;DHT22;198;48.752;9.180;2023-12-04T07:53:32;-2.10;99.90
423;DHT22;198;48.752;9.180;2023-12-04T07:56:01;-2.10;99.90
423;DHT22;198;48.752;9.180;2023-12-04T07:58:28;-2.10;99.90
423;DHT22;198;48.752;9.180;2023-12-04T08:00:54;-2.00;99.90
423;DHT22;198;48.752;9.180;2023-12-04T08:03:19;-2.00;99.90
423;DHT22;198;48.752;9.180;2023-12-04T08:05:45;-2.00;99.90
423;DHT22;198;48.752;9.180;2023-12-04T08:08:10;-2.00;99.90
423;DHT22;198;48.752;9.180;2023-12-04T08:10:36;-1.90;99.90
423;DHT22;198;48.752;9.180;2023-12-04T08:13:01;-1.80;99.90
423;DHT22;198;48.752;9.180;2023-12-04T08:15:27;-1.80;99.90
423;DHT22;198;48.752;9.180;2023-12-04T08:17:52;-1.80;99.90
423;DHT22;198;48.752;9.180;2023-12-04T08:20:18;-1.80;99.90
423;DHT22;198;48.752;9.180;2023-12-04T08:22:47;-1.90;99.90
423;DHT22;198;48.752;9.180;2023-12-04T08:25:13;-1.80;99.90
423;DHT22;198;48.752;9.180;2023-12-04T08:27:38;-1.70;99.90
423;DHT22;198;48.752;9.180;2023-12-04T08:30:05;-1.70;99.90
423;DHT22;198;48.752;9.180;2023-12-04T08:32:31;-1.70;99.90
423;DHT22;198;48.752;9.180;2023-12-04T08:34:56;-1.60;99.90
423;DHT22;198;48.752;9.180;2023-12-04T08:37:22;-1.60;99.90
423;DHT22;198;48.752;9.180;2023-12-04T08:39:47;-1.60;99.90
423;DHT22;198;48.752;9.180;2023-12-04T08:42:13;-1.60;99.90
423;DHT22;198;48.752;9.180;2023-12-04T08:44:38;-1.60;99.90
423;DHT22;198;48.752;9.180;2023-12-04T08:47:04;-1.40;99.90
423;DHT22;198;48.752;9.180;2023-12-04T08:49:30;-1.30;99.90
423;DHT22;198;48.752;9.180;2023-12-04T08:51:56;-1.20;99.90
423;DHT22;198;48.752;9.180;2023-12-04T08:54:21;-1.10;99.90
423;DHT22;198;48.752;9.180;2023-12-04T08:56:47;-1.10;99.90
423;DHT22;198;48.752;9.180;2023-12-04T08:59:12;-1.20;99.90
423;DHT22;198;48.752;9.180;2023-12-04T09:01:38;-1.20;99.90
423;DHT22;198;48.752;9.180;2023-12-04T09:04:04;-1.10;99.90
423;DHT22;198;48.752;9.180;2023-12-04T09:06:30;-1.20;99.90
423;DHT22;198;48.752;9.180;2023-12-04T09:08:55;-1.20;99.90
423;DHT22;198;48.752;9.180;2023-12-04T09:11:21;-1.20;99.90
423;DHT22;198;48.752;9.180;2023-12-04T09:13:46;-1.20;99.90
423;DHT22;198;48.752;9.180;2023-12-04T09:16:12;-1.20;99.90
423;DHT22;198;48.752;9.180;2023-12-04T09:18:39;-1.20;99.90
423;DHT22;198;48.752;9.180;2023-12-04T09:21:04;-1.20;99.90
423;DHT22;198;48.752;9.180;2023-12-04T09:23:30;-1.10;99.90
423;DHT22;198;48.752;9.180;2023-12-04T09:25:56;-1.00;99.90
423;DHT22;198;48.752;9.180;2023-12-04T09:28:21;-0.90;99.90
423;DHT22;198;48.752;9.180;2023-12-04T09:30:47;-0.70;99.90
423;DHT22;198;48.752;9.180;2023-12-04T09:33:12;-0.60;99.90
423;DHT22;198;48.752;9.180;2023-12-04T09:35:38;-0.40;99.90
423;DHT22;198;48.752;9.180;2023-12-04T09:38:03;-0.30;99.90
423;DHT22;198;48.752;9.180;2023-12-04T09:40:29;-0.30;99.90
423;DHT22;198;48.752;9.180;2023-12-04T09:42:54;-0.30;99.90
423;DHT22;198;48.752;9.180;2023-12-04T09:45:20;-0.30;99.90
423;DHT22;198;48.752;9.180;2023-12-04T09:47:48;-0.30;99.90
423;DHT22;198;48.752;9.180;2023-12-04T09:50:16;-0.40;99.90
423;DHT22;198;48.752;9.180;2023-12-04T09:52:51;-0.40;99.90
423;DHT22;198;48.752;9.180;2023-12-04T09:55:17;-0.40;99.90
423;DHT22;198;48.752;9.180;2023-12-04T09:57:46;-0.40;99.90
423;DHT22;198;48.752;9.180;2023-12-04T10:00:13;-0.40;99.90
423;DHT22;198;48.752;9.180;2023-12-04T10:02:40;-0.50;99.90
423;DHT22;198;48.752;9.180;2023-12-04T10:05:07;-0.60;99.90
423;DHT22;198;48.752;9.180;2023-12-04T10:07:32;-0.60;99.90
423;DHT22;198;48.752;9.180;2023-12-04T10:09:58;-0.60;99.90
423;DHT22;198;48.752;9.180;2023-12-04T10:12:25;-0.50;99.90
423;DHT22;198;48.752;9.180;2023-12-04T10:15:09;-0.30;99.90
423;DHT22;198;48.752;9.180;2023-12-04T10:17:40;-0.10;99.90
423;DHT22;198;48.752;9.180;2023-12-04T10:20:08;-0.10;99.90
423;DHT22;198;48.752;9.180;2023-12-04T10:22:59;0.00;99.90
423;DHT22;198;48.752;9.180;2023-12-04T10:25:26;0.10;99.90
423;DHT22;198;48.752;9.180;2023-12-04T10:27:54;0.10;99.90
423;DHT22;198;48.752;9.180;2023-12-04T10:30:26;0.10;99.90
423;DHT22;198;48.752;9.180;2023-12-04T10:33:01;0.10;99.90
423;DHT22;198;48.752;9.180;2023-12-04T10:35:32;0.20;99.90
423;DHT22;198;48.752;9.180;2023-12-04T10:37:58;0.30;99.90
423;DHT22;198;48.752;9.180;2023-12-04T10:40:30;0.40;99.90
423;DHT22;198;48.752;9.180;2023-12-04T10:45:34;0.70;99.90
423;DHT22;198;48.752;9.180;2023-12-04T10:48:01;0.80;99.90
423;DHT22;198;48.752;9.180;2023-12-04T10:50:32;0.90;99.90
423;DHT22;198;48.752;9.180;2023-12-04T10:53:00;1.00;99.90
423;DHT22;198;48.752;9.180;2023-12-04T10:55:26;1.00;99.90
423;DHT22;198;48.752;9.180;2023-12-04T10:57:52;1.10;99.90
423;DHT22;198;48.752;9.180;2023-12-04T11:00:19;1.20;99.90
423;DHT22;198;48.752;9.180;2023-12-04T11:02:46;1.30;99.90
423;DHT22;198;48.752;9.180;2023-12-04T11:05:16;1.50;99.90
423;DHT22;198;48.752;9.180;2023-12-04T11:07:53;2.00;99.90
423;DHT22;198;48.752;9.180;2023-12-04T11:10:23;2.50;99.90
423;DHT22;198;48.752;9.180;2023-12-04T11:12:56;2.80;99.40
423;DHT22;198;48.752;9.180;2023-12-04T11:15:23;2.90;98.00
423;DHT22;198;48.752;9.180;2023-12-04T11:17:54;3.00;97.00
423;DHT22;198;48.752;9.180;2023-12-04T11:20:24;2.80;97.10
423;DHT22;198;48.752;9.180;2023-12-04T11:22:53;2.80;97.00
423;DHT22;198;48.752;9.180;2023-12-04T11:25:20;2.70;96.50
423;DHT22;198;48.752;9.180;2023-12-04T11:27:49;2.60;97.00
423;DHT22;198;48.752;9.180;2023-12-04T11:30:14;2.30;97.20
423;DHT22;198;48.752;9.180;2023-12-04T11:32:45;2.20;98.00
423;DHT22;198;48.752;9.180;2023-12-04T11:35:15;2.00;98.30
423;DHT22;198;48.752;9.180;2023-12-04T11:37:43;1.90;98.60
423;DHT22;198;48.752;9.180;2023-12-04T11:40:14;1.80;99.50
423;DHT22;198;48.752;9.180;2023-12-04T11:42:41;1.80;99.90
423;DHT22;198;48.752;9.180;2023-12-04T11:45:07;1.80;99.90
423;DHT22;198;48.752;9.180;2023-12-04T11:47:51;1.90;99.90
423;DHT22;198;48.752;9.180;2023-12-04T11:50:19;2.00;99.90
423;DHT22;198;48.752;9.180;2023-12-04T11:52:45;2.10;99.90
423;DHT22;198;48.752;9.180;2023-12-04T11:55:11;2.10;99.90
423;DHT22;198;48.752;9.180;2023-12-04T11:57:38;2.10;99.90
423;DHT22;198;48.752;9.180;2023-12-04T12:00:19;2.20;99.90
423;DHT22;198;48.752;9.180;2023-12-04T12:05:23;2.40;99.90
423;DHT22;198;48.752;9.180;2023-12-04T12:07:48;2.60;99.90
423;DHT22;198;48.752;9.180;2023-12-04T12:10:16;2.70;99.90
423;DHT22;198;48.752;9.180;2023-12-04T12:12:42;2.90;99.90
423;DHT22;198;48.752;9.180;2023-12-04T12:15:09;3.20;99.90
423;DHT22;198;48.752;9.180;2023-12-04T12:17:35;3.40;99.80
423;DHT22;198;48.752;9.180;2023-12-04T12:20:01;3.50;98.90
423;DHT22;198;48.752;9.180;2023-12-04T12:22:29;3.60;98.60
423;DHT22;198;48.752;9.180;2023-12-04T12:24:54;3.60;98.50
423;DHT22;198;48.752;9.180;2023-12-04T12:27:20;3.60;98.70
423;DHT22;198;48.752;9.180;2023-12-04T12:29:45;3.70;98.80
423;DHT22;198;48.752;9.180;2023-12-04T12:32:11;3.80;98.60
423;DHT22;198;48.752;9.180;2023-12-04T12:34:36;4.10;98.70
423;DHT22;198;48.752;9.180;2023-12-04T12:37:03;4.10;97.10
423;DHT22;198;48.752;9.180;2023-12-04T12:39:31;3.80;96.40
423;DHT22;198;48.752;9.180;2023-12-04T12:41:56;3.60;97.60
423;DHT22;198;48.752;9.180;2023-12-04T12:44:22;3.40;97.60
423;DHT22;198;48.752;9.180;2023-12-04T12:46:48;3.30;98.40
423;DHT22;198;48.752;9.180;2023-12-04T12:49:20;3.20;97.80
423;DHT22;198;48.752;9.180;2023-12-04T12:51:46;2.90;98.20
423;DHT22;198;48.752;9.180;2023-12-04T12:54:11;2.80;99.30
423;DHT22;198;48.752;9.180;2023-12-04T12:56:37;2.60;99.30
423;DHT22;198;48.752;9.180;2023-12-04T12:59:02;2.50;99.60
423;DHT22;198;48.752;9.180;2023-12-04T13:01:31;2.40;99.90
423;DHT22;198;48.752;9.180;2023-12-04T13:03:57;2.30;99.90
423;DHT22;198;48.752;9.180;2023-12-04T13:06:23;2.30;99.90
423;DHT22;198;48.752;9.180;2023-12-04T13:08:48;2.40;99.90
423;DHT22;198;48.752;9.180;2023-12-04T13:11:14;2.50;99.90
423;DHT22;198;48.752;9.180;2023-12-04T13:13:40;2.40;99.90
423;DHT22;198;48.752;9.180;2023-12-04T13:16:06;2.30;99.90
423;DHT22;198;48.752;9.180;2023-12-04T13:18:32;2.20;99.90
423;DHT22;198;48.752;9.180;2023-12-04T13:21:00;2.00;99.90
423;DHT22;198;48.752;9.180;2023-12-04T13:23:26;2.00;99.90
423;DHT22;198;48.752;9.180;2023-12-04T13:25:51;2.00;99.90
423;DHT22;198;48.752;9.180;2023-12-04T13:28:17;1.90;99.90
423;DHT22;198;48.752;9.180;2023-12-04T13:30:42;1.90;99.90
423;DHT22;198;48.752;9.180;2023-12-04T13:33:08;1.90;99.90
423;DHT22;198;48.752;9.180;2023-12-04T13:35:34;1.80;99.90
423;DHT22;198;48.752;9.180;2023-12-04T13:37:59;1.80;99.90
423;DHT22;198;48.752;9.180;2023-12-04T13:40:25;1.90;99.90
423;DHT22;198;48.752;9.180;2023-12-04T13:42:54;1.80;99.90
423;DHT22;198;48.752;9.180;2023-12-04T13:45:38;1.60;99.90
423;DHT22;198;48.752;9.180;2023-12-04T13:48:04;1.40;99.90
423;DHT22;198;48.752;9.180;2023-12-04T13:50:29;1.40;99.90
423;DHT22;198;48.752;9.180;2023-12-04T13:52:55;1.30;99.90
423;DHT22;198;48.752;9.180;2023-12-04T13:55:23;1.30;99.90
423;DHT22;198;48.752;9.180;2023-12-04T13:58:00;1.30;99.90
423;DHT22;198;48.752;9.180;2023-12-04T14:00:26;1.20;99.90
423;DHT22;198;48.752;9.180;2023-12-04T14:02:51;1.10;99.90
423;DHT22;198;48.752;9.180;2023-12-04T14:05:32;1.10;99.90
423;DHT22;198;48.752;9.180;2023-12-04T14:07:58;1.10;99.90
423;DHT22;198;48.752;9.180;2023-12-04T14:10:24;0.90;99.90
423;DHT22;198;48.752;9.180;2023-12-04T14:12:51;0.90;99.90
423;DHT22;198;48.752;9.180;2023-12-04T14:15:17;0.80;99.90
423;DHT22;198;48.752;9.180;2023-12-04T14:17:42;0.70;99.90
423;DHT22;198;48.752;9.180;2023-12-04T14:20:08;0.70;99.90
423;DHT22;198;48.752;9.180;2023-12-04T14:22:42;0.60;99.90
423;DHT22;198;48.752;9.180;2023-12-04T14:25:08;0.60;99.90
423;DHT22;198;48.752;9.180;2023-12-04T14:27:34;0.60;99.90
423;DHT22;198;48.752;9.180;2023-12-04T14:30:00;0.60;99.90
423;DHT22;198;48.752;9.180;2023-12-04T14:32:27;0.60;99.90
423;DHT22;198;48.752;9.180;2023-12-04T14:34:52;0.60;99.90
423;DHT22;198;48.752;9.180;2023-12-04T14:37:18;0.50;99.90
423;DHT22;198;48.752;9.180;2023-12-04T14:39:43;0.50;99.90
423;DHT22;198;48.752;9.180;2023-12-04T14:42:10;0.40;99.90
423;DHT22;198;48.752;9.180;2023-12-04T14:44:36;0.40;99.90
423;DHT22;198;48.752;9.180;2023-12-04T14:47:01;0.40;99.90
423;DHT22;198;48.752;9.180;2023-12-04T14:49:29;0.40;99.90
423;DHT22;198;48.752;9.180;2023-12-04T14:51:57;0.40;99.90
423;DHT22;198;48.752;9.180;2023-12-04T14:54:22;0.30;99.90
423;DHT22;198;48.752;9.180;2023-12-04T14:57:03;0.30;99.90
423;DHT22;198;48.752;9.180;2023-12-04T14:59:49;0.40;99.90
423;DHT22;198;48.752;9.180;2023-12-04T15:02:35;0.30;99.90
423;DHT22;198;48.752;9.180;2023-12-04T15:05:19;0.30;99.90
423;DHT22;198;48.752;9.180;2023-12-04T15:08:03;0.20;99.90
423;DHT22;198;48.752;9.180;2023-12-04T15:11:01;0.20;99.90
423;DHT22;198;48.752;9.180;2023-12-04T15:13:35;0.20;99.90
423;DHT22;198;48.752;9.180;2023-12-04T15:16:21;0.10;99.90
423;DHT22;198;48.752;9.180;2023-12-04T15:19:11;0.20;99.90
423;DHT22;198;48.752;9.180;2023-12-04T15:22:00;0.20;99.90
423;DHT22;198;48.752;9.180;2023-12-04T15:24:25;0.20;99.90
423;DHT22;198;48.752;9.180;2023-12-04T15:26:51;0.30;99.90
423;DHT22;198;48.752;9.180;2023-12-04T15:29:17;0.20;99.90
423;DHT22;198;48.752;9.180;2023-12-04T15:31:46;0.20;99.90
423;DHT22;198;48.752;9.180;2023-12-04T15:34:11;0.30;99.90
423;DHT22;198;48.752;9.180;2023-12-04T15:36:37;0.30;99.90
423;DHT22;198;48.752;9.180;2023-12-04T15:39:03;0.40;99.90
423;DHT22;198;48.752;9.180;2023-12-04T15:41:28;0.40;99.90
423;DHT22;198;48.752;9.180;2023-12-04T15:43:53;0.40;99.90
423;DHT22;198;48.752;9.180;2023-12-04T15:46:19;0.50;99.90
423;DHT22;198;48.752;9.180;2023-12-04T15:48:45;0.50;99.90
423;DHT22;198;48.752;9.180;2023-12-04T15:51:10;0.50;99.90
423;DHT22;198;48.752;9.180;2023-12-04T15:53:37;0.50;99.90
423;DHT22;198;48.752;9.180;2023-12-04T15:56:04;0.50;99.90
423;DHT22;198;48.752;9.180;2023-12-04T15:58:30;0.50;99.90
423;DHT22;198;48.752;9.180;2023-12-04T16:00:58;0.50;99.90
423;DHT22;198;48.752;9.180;2023-12-04T16:03:24;0.40;99.90
423;DHT22;198;48.752;9.180;2023-12-04T16:05:49;0.40;99.90
423;DHT22;198;48.752;9.180;2023-12-04T16:08:15;0.40;99.90
423;DHT22;198;48.752;9.180;2023-12-04T16:10:40;0.40;99.90
423;DHT22;198;48.752;9.180;2023-12-04T16:13:06;0.40;99.90
423;DHT22;198;48.752;9.180;2023-12-04T16:15:31;0.30;99.90
423;DHT22;198;48.752;9.180;2023-12-04T16:17:57;0.20;99.90
423;DHT22;198;48.752;9.180;2023-12-04T16:20:22;0.30;99.90
423;DHT22;198;48.752;9.180;2023-12-04T16:22:48;0.20;99.90
423;DHT22;198;48.752;9.180;2023-12-04T16:25:13;0.20;99.90
423;DHT22;198;48.752;9.180;2023-12-04T16:27:45;0.20;99.90
423;DHT22;198;48.752;9.180;2023-12-04T16:30:11;0.20;99.90
423;DHT22;198;48.752;9.180;2023-12-04T16:32:38;0.20;99.90
423;DHT22;198;48.752;9.180;2023-12-04T16:35:04;0.30;99.90
423;DHT22;198;48.752;9.180;2023-12-04T16:37:30;0.30;99.90
423;DHT22;198;48.752;9.180;2023-12-04T16:39:55;0.30;99.90
423;DHT22;198;48.752;9.180;2023-12-04T16:42:21;0.30;99.90
423;DHT22;198;48.752;9.180;2023-12-04T16:44:46;0.30;99.90